Time;durP1;ratioP1;P1;durP2;ratioP2;P2;SDS_P1;SDS_P2;PMS_P1;PMS_P2;Temp;Humidity;BMP_temperature;BMP_pressure;BME280_temperature;BME280_humidity;BME280_pressure;Samples;Min_cycle;Max_cycle;Signal;HPM_P1;HPM_P2
2022/11/01 00:01:17;;;;;;;9.05;4.22;;;;;17.10;100285.00;;;;10300268;28;20647;-77
2022/11/01 00:06:19;;;;;;;8.60;3.90;;;;;17.10;100282.00;;;;10316636;28;20216;-76
2022/11/01 00:11:21;;;;;;;6.13;4.00;;;;;17.10;100282.00;;;;10284336;28;20247;-76
2022/11/01 00:16:23;;;;;;;9.25;4.03;;;;;17.00;100276.00;;;;10331479;28;20211;-76
2022/11/01 00:21:25;;;;;;;7.72;4.35;;;;;17.00;100268.00;;;;10296498;28;20204;-76
2022/11/01 00:26:27;;;;;;;10.02;4.60;;;;;17.00;100262.00;;;;10299571;28;20196;-77
2022/11/01 00:31:31;;;;;;;11.32;3.65;;;;;17.00;100270.00;;;;10316061;28;20930;-77
2022/11/01 00:36:34;;;;;;;10.25;3.97;;;;;17.10;100270.00;;;;10292756;28;20208;-78
2022/11/01 00:41:36;;;;;;;7.63;4.70;;;;;17.10;100261.00;;;;10336449;28;20192;-77
2022/11/01 00:46:38;;;;;;;6.93;3.45;;;;;17.10;100267.00;;;;10304096;28;20180;-78
2022/11/01 00:51:40;;;;;;;9.48;4.10;;;;;17.20;100267.00;;;;10338317;28;20195;-77
2022/11/01 00:56:42;;;;;;;7.18;4.07;;;;;17.20;100271.00;;;;10318567;28;20220;-78
2022/11/01 01:01:44;;;;;;;10.98;3.33;;;;;17.30;100278.00;;;;10318860;28;20651;-77
2022/11/01 01:06:46;;;;;;;7.53;3.42;;;;;17.30;100271.00;;;;10315267;28;20220;-77
2022/11/01 01:11:48;;;;;;;5.97;3.42;;;;;17.40;100270.00;;;;10295455;28;20197;-77
2022/11/01 01:16:49;;;;;;;8.65;3.67;;;;;17.40;100272.00;;;;10270466;28;20212;-78
2022/11/01 01:21:52;;;;;;;6.93;3.30;;;;;17.40;100289.00;;;;10301928;28;20188;-77
2022/11/01 01:26:54;;;;;;;6.03;3.05;;;;;17.30;100282.00;;;;10317241;28;20195;-77
2022/11/01 01:31:56;;;;;;;4.28;2.45;;;;;17.20;100290.00;;;;10317980;28;20188;-77
2022/11/01 01:36:58;;;;;;;3.25;2.20;;;;;17.20;100292.00;;;;10317886;28;20250;-77
2022/11/01 01:42:04;;;;;;;6.22;2.40;;;;;17.10;100304.00;;;;10317766;28;20184;-76
2022/11/01 01:47:06;;;;;;;5.55;2.40;;;;;17.10;100310.00;;;;10334451;28;20188;-78
2022/11/01 01:52:09;;;;;;;4.90;2.47;;;;;17.10;100317.00;;;;10250940;28;20248;-77
2022/11/01 01:57:11;;;;;;;2.80;1.95;;;;;17.00;100324.00;;;;10282791;28;20212;-77
2022/11/01 02:02:13;;;;;;;5.30;1.98;;;;;17.00;100331.00;;;;10299723;28;20200;-77
2022/11/01 02:07:15;;;;;;;4.80;2.38;;;;;16.90;100326.00;;;;10298343;28;20267;-77
2022/11/01 02:12:17;;;;;;;4.25;1.60;;;;;16.80;100359.00;;;;10298568;28;20599;-77
2022/11/01 02:17:32;;;;;;;3.55;1.58;;;;;16.70;100365.00;;;;10338968;28;20208;-77
2022/11/01 02:22:40;;;;;;;2.65;1.80;;;;;16.70;100371.00;;;;10315075;28;20548;-76
2022/11/01 02:28:21;;;;;;;4.15;2.22;;;;;16.70;100378.00;;;;10283175;28;20243;-77
2022/11/01 02:33:31;;;;;;;3.63;1.48;;;;;16.60;100375.00;;;;10282242;28;20221;-77
2022/11/01 02:38:37;;;;;;;2.63;1.20;;;;;16.40;100393.00;;;;10316149;28;20203;-77
2022/11/01 02:44:01;;;;;;;2.25;1.30;;;;;16.20;100418.00;;;;10321422;28;20184;-77
2022/11/01 02:49:04;;;;;;;2.20;0.60;;;;;15.90;100422.00;;;;10321968;28;20196;-77
2022/11/01 02:54:07;;;;;;;3.75;0.85;;;;;15.70;100431.00;;;;10304282;28;20208;-77
2022/11/01 02:59:18;;;;;;;2.53;0.63;;;;;15.50;100426.00;;;;10305378;28;20200;-77
2022/11/01 03:04:20;;;;;;;0.70;0.60;;;;;15.30;100434.00;;;;10320879;28;20682;-77
2022/11/01 03:09:22;;;;;;;3.80;1.05;;;;;15.10;100437.00;;;;10313800;28;20204;-78
2022/11/01 03:15:03;;;;;;;3.10;0.98;;;;;14.90;100454.00;;;;10309017;28;20655;-77
2022/11/01 03:20:20;;;;;;;2.28;0.70;;;;;14.80;100454.00;;;;10327708;28;20210;-77
2022/11/01 03:25:39;;;;;;;3.92;1.25;;;;;14.70;100447.00;;;;10310844;28;20188;-77
2022/11/01 03:30:46;;;;;;;1.77;0.60;;;;;14.80;100473.00;;;;10301538;28;20208;-76
2022/11/01 03:35:52;;;;;;;1.15;0.60;;;;;14.70;100486.00;;;;10316405;28;20263;-77
2022/11/01 03:40:59;;;;;;;0.80;0.75;;;;;14.60;100486.00;;;;10299551;28;20201;-77
2022/11/01 03:46:01;;;;;;;4.80;1.00;;;;;14.60;100493.00;;;;10318923;28;20191;-77
2022/11/01 03:51:03;;;;;;;1.15;0.50;;;;;14.60;100498.00;;;;10300876;28;20189;-77
2022/11/01 03:56:05;;;;;;;2.17;0.80;;;;;14.50;100497.00;;;;10285365;28;20212;-77
2022/11/01 04:01:08;;;;;;;4.13;1.02;;;;;14.50;100511.00;;;;10317547;28;20188;-77
2022/11/01 04:06:10;;;;;;;2.83;0.85;;;;;14.40;100540.00;;;;10317197;28;20703;-77
2022/11/01 04:11:12;;;;;;;0.77;0.75;;;;;14.40;100557.00;;;;10320602;28;20267;-77
2022/11/01 04:21:34;;;;;;;4.18;0.70;;;;;14.20;100590.00;;;;10300765;28;20188;-77
2022/11/01 04:26:36;;;;;;;3.42;0.70;;;;;14.10;100605.00;;;;10316227;28;20187;-77
2022/11/01 04:31:38;;;;;;;4.00;0.80;;;;;14.20;100621.00;;;;10283591;28;20222;-77
2022/11/01 04:36:40;;;;;;;2.40;0.70;;;;;14.20;100637.00;;;;10325901;28;20208;-77
2022/11/01 04:41:41;;;;;;;5.83;1.17;;;;;14.10;100657.00;;;;10299957;28;20825;-77
2022/11/01 04:46:43;;;;;;;3.57;0.77;;;;;14.00;100649.00;;;;10283189;28;20196;-78
2022/11/01 04:51:45;;;;;;;2.00;0.60;;;;;13.80;100657.00;;;;10299378;28;20666;-77
2022/11/01 04:56:47;;;;;;;3.13;0.80;;;;;13.70;100661.00;;;;10314003;28;20211;-77
2022/11/01 05:01:49;;;;;;;6.73;1.03;;;;;13.60;100661.00;;;;10312543;28;20196;-77
2022/11/01 05:06:51;;;;;;;2.93;0.97;;;;;13.50;100676.00;;;;10296028;28;20684;-77
2022/11/01 05:11:53;;;;;;;3.70;0.90;;;;;13.50;100688.00;;;;10295983;28;20298;-77
2022/11/01 05:16:55;;;;;;;6.43;0.90;;;;;13.30;100698.00;;;;10320457;28;20209;-77
2022/11/01 05:21:58;;;;;;;4.40;0.80;;;;;13.20;100710.00;;;;10352802;28;20191;-77
2022/11/01 05:27:00;;;;;;;2.23;0.70;;;;;13.20;100724.00;;;;10292264;28;20257;-78
2022/11/01 05:32:02;;;;;;;3.53;0.90;;;;;13.10;100734.00;;;;10256211;28;20197;-77
2022/11/01 05:37:04;;;;;;;1.07;0.67;;;;;13.00;100729.00;;;;10271817;28;20686;-77
2022/11/01 05:42:06;;;;;;;2.67;0.70;;;;;12.90;100742.00;;;;10311122;28;20251;-77
2022/11/01 05:47:08;;;;;;;2.57;0.80;;;;;12.80;100752.00;;;;10296406;28;20643;-78
2022/11/01 05:52:17;;;;;;;5.90;1.30;;;;;12.80;100757.00;;;;10280677;28;20188;-77
2022/11/01 05:57:18;;;;;;;5.60;1.50;;;;;12.60;100764.00;;;;10272924;28;1093838;-77
2022/11/01 06:02:20;;;;;;;8.50;1.30;;;;;12.60;100769.00;;;;10329451;28;20192;-77
2022/11/01 06:07:25;;;;;;;6.10;1.80;;;;;12.50;100774.00;;;;10280394;28;20679;-77
2022/11/01 06:12:27;;;;;;;6.60;1.50;;;;;12.40;100767.00;;;;10283407;28;20192;-77
2022/11/01 06:17:28;;;;;;;6.20;1.10;;;;;12.30;100774.00;;;;10303455;28;20257;-77
2022/11/01 06:22:33;;;;;;;9.30;1.50;;;;;12.20;100772.00;;;;10320517;28;20200;-77
2022/11/01 06:27:35;;;;;;;4.97;1.27;;;;;12.10;100793.00;;;;10303957;28;20193;-77
2022/11/01 06:32:36;;;;;;;4.83;1.27;;;;;12.10;100772.00;;;;10303806;28;20193;-77
2022/11/01 06:37:38;;;;;;;5.07;1.27;;;;;12.00;100788.00;;;;10286985;28;20199;-78
2022/11/01 06:42:40;;;;;;;7.10;1.23;;;;;12.00;100802.00;;;;10328553;28;20702;-77
2022/11/01 06:47:47;;;;;;;6.47;1.90;;;;;11.90;100816.00;;;;10297682;28;20231;-79
2022/11/01 06:52:49;;;;;;;10.63;1.70;;;;;12.00;100827.00;;;;10296648;28;20188;-78
2022/11/01 06:57:56;;;;;;;5.87;1.40;;;;;12.00;100816.00;;;;10311643;28;20306;-78
2022/11/01 07:03:00;;;;;;;10.30;1.53;;;;;12.10;100833.00;;;;10311541;28;20196;-78
2022/11/01 07:08:03;;;;;;;6.63;1.27;;;;;12.10;100853.00;;;;10295726;28;20309;-78
2022/11/01 07:13:08;;;;;;;9.90;1.77;;;;;12.20;100863.00;;;;10279840;28;20184;-79
2022/11/01 07:18:09;;;;;;;7.27;1.57;;;;;12.30;100872.00;;;;10311157;28;20204;-78
2022/11/01 07:23:14;;;;;;;6.17;1.40;;;;;12.30;100883.00;;;;10309744;28;20196;-78
2022/11/01 07:28:16;;;;;;;10.63;2.00;;;;;12.40;100896.00;;;;10327650;28;20199;-77
2022/11/01 07:33:18;;;;;;;4.40;1.60;;;;;12.50;100893.00;;;;10313836;28;20209;-78
2022/11/01 07:38:20;;;;;;;8.83;1.37;;;;;12.60;100907.00;;;;10308733;28;20196;-77
2022/11/01 07:43:22;;;;;;;6.00;1.23;;;;;12.60;100900.00;;;;10310854;28;20196;-79
2022/11/01 07:48:24;;;;;;;7.30;1.50;;;;;12.70;100915.00;;;;10305519;28;20196;-79
2022/11/01 07:53:26;;;;;;;7.93;1.67;;;;;12.80;100925.00;;;;10342174;28;20193;-79
2022/11/01 07:58:28;;;;;;;7.30;1.47;;;;;13.00;100933.00;;;;10296641;28;20223;-78
2022/11/01 08:03:30;;;;;;;6.93;1.43;;;;;13.10;100923.00;;;;10325690;28;20279;-78
2022/11/01 08:08:32;;;;;;;8.13;1.20;;;;;13.30;100928.00;;;;10300252;28;20220;-77
2022/11/01 08:13:33;;;;;;;2.47;1.07;;;;;13.40;100923.00;;;;10285994;28;20197;-78
2022/11/01 08:18:35;;;;;;;8.93;1.60;;;;;13.60;100929.00;;;;10289339;28;20193;-79
2022/11/01 08:23:37;;;;;;;7.03;1.50;;;;;13.90;100936.00;;;;10268121;28;20244;-78
2022/11/01 08:28:39;;;;;;;8.50;1.40;;;;;14.20;100935.00;;;;10268867;28;20185;-78
2022/11/01 08:33:41;;;;;;;7.63;1.45;;;;;14.50;100958.00;;;;10299187;28;20210;-79
2022/11/01 08:38:43;;;;;;;5.68;1.70;;;;;14.70;100940.00;;;;10307827;28;20739;-79
2022/11/01 08:43:45;;;;;;;10.07;1.65;;;;;14.90;100941.00;;;;10292029;28;20242;-78
2022/11/01 08:48:47;;;;;;;8.65;1.45;;;;;15.10;100956.00;;;;10309194;28;20232;-79
2022/11/01 08:53:49;;;;;;;9.30;1.73;;;;;15.30;100968.00;;;;10307242;28;20208;-78
2022/11/01 08:58:51;;;;;;;5.93;1.60;;;;;15.40;100961.00;;;;10322931;28;20208;-79
2022/11/01 09:04:00;;;;;;;6.78;1.42;;;;;15.60;100951.00;;;;10306819;28;20196;-78
2022/11/01 09:09:03;;;;;;;11.60;2.38;;;;;15.80;100953.00;;;;10316236;28;20228;-79
2022/11/01 09:14:05;;;;;;;7.30;1.50;;;;;15.90;100962.00;;;;10315397;28;20615;-78
2022/11/01 09:19:07;;;;;;;10.48;1.90;;;;;15.90;100972.00;;;;10379860;28;20179;-77
2022/11/01 09:24:14;;;;;;;6.60;1.83;;;;;16.00;100966.00;;;;10378066;28;20187;-78
2022/11/01 09:29:17;;;;;;;13.23;1.80;;;;;16.00;100979.00;;;;10345825;28;20780;-78
2022/11/01 09:34:20;;;;;;;8.48;2.33;;;;;16.20;100992.00;;;;10296932;28;20212;-79
2022/11/01 09:39:22;;;;;;;13.00;1.98;;;;;16.30;101003.00;;;;10306575;28;20212;-79
2022/11/01 09:44:32;;;;;;;5.75;1.60;;;;;16.40;100990.00;;;;10305699;28;20196;-79
2022/11/01 09:49:37;;;;;;;9.73;2.20;;;;;16.50;100989.00;;;;10321891;28;20550;-79
2022/11/01 09:54:39;;;;;;;8.00;2.10;;;;;16.50;100994.00;;;;10320193;28;20674;-79
2022/11/01 09:59:56;;;;;;;11.35;1.80;;;;;16.60;100996.00;;;;10305205;28;20204;-79
2022/11/01 10:05:04;;;;;;;6.18;1.67;;;;;16.80;100994.00;;;;10305858;28;20590;-79
2022/11/01 10:10:37;;;;;;;6.20;1.67;;;;;16.90;101009.00;;;;10337969;28;20196;-79
2022/11/01 10:15:55;;;;;;;8.63;2.58;;;;;17.20;101013.00;;;;10320610;28;20189;-78
2022/11/01 10:21:01;;;;;;;8.18;1.80;;;;;17.40;101017.00;;;;10320858;28;20255;-79
2022/11/01 10:26:04;;;;;;;6.82;1.45;;;;;17.70;101025.00;;;;10337461;28;20699;-79
2022/11/01 10:31:13;;;;;;;6.03;1.58;;;;;18.10;101022.00;;;;10305806;28;20204;-79
2022/11/01 10:36:24;;;;;;;7.40;1.40;;;;;18.30;101035.00;;;;10316972;28;20208;-79
2022/11/01 10:41:39;;;;;;;8.27;1.42;;;;;18.50;101022.00;;;;10320166;28;20204;-78
2022/11/01 10:46:45;;;;;;;7.07;1.42;;;;;18.50;101020.00;;;;10336690;28;20223;-78
2022/11/01 10:51:50;;;;;;;9.02;1.63;;;;;18.60;101015.00;;;;10319797;28;20226;-78
2022/11/01 10:56:56;;;;;;;9.07;1.55;;;;;18.70;101020.00;;;;10266107;28;20338;-79
2022/11/01 11:02:00;;;;;;;7.47;1.98;;;;;18.70;101022.00;;;;10257975;28;20200;-78
2022/11/01 11:07:12;;;;;;;5.50;1.65;;;;;18.70;101022.00;;;;10318271;28;20259;-80
2022/11/01 11:12:18;;;;;;;3.47;1.33;;;;;18.70;101019.00;;;;10343929;28;20199;-78
2022/11/01 11:17:36;;;;;;;7.40;1.58;;;;;18.70;101032.00;;;;10348875;28;20200;-79
2022/11/01 11:22:40;;;;;;;5.57;1.40;;;;;18.70;101016.00;;;;10319402;28;20202;-79
2022/11/01 11:27:46;;;;;;;5.38;1.55;;;;;18.70;101028.00;;;;10367876;28;20597;-78
2022/11/01 11:32:49;;;;;;;10.00;2.55;;;;;18.80;101025.00;;;;10350316;28;20199;-78
2022/11/01 11:38:03;;;;;;;3.60;1.30;;;;;18.80;101025.00;;;;10328738;28;20196;-78
2022/11/01 11:43:33;;;;;;;5.93;1.25;;;;;18.90;101023.00;;;;10309545;28;20235;-79
2022/11/01 11:48:52;;;;;;;7.85;1.60;;;;;18.90;101005.00;;;;10307242;28;20278;-79
2022/11/01 11:54:12;;;;;;;7.60;1.50;;;;;19.20;101020.00;;;;10324952;28;20279;-78
2022/11/01 11:59:24;;;;;;;8.32;1.50;;;;;19.50;101027.00;;;;10321930;28;20207;-79
2022/11/01 12:04:38;;;;;;;8.50;2.15;;;;;19.40;101015.00;;;;10324214;28;20698;-78
2022/11/01 12:09:46;;;;;;;7.13;1.65;;;;;19.50;101005.00;;;;10306648;28;20185;-78
2022/11/01 12:14:49;;;;;;;3.67;1.20;;;;;19.60;101004.00;;;;10292556;28;20216;-79
2022/11/01 12:20:21;;;;;;;7.88;1.00;;;;;19.80;100985.00;;;;10312719;28;20223;-79
2022/11/01 12:25:23;;;;;;;6.30;1.60;;;;;19.80;100991.00;;;;10315105;28;20296;-79
2022/11/01 12:30:29;;;;;;;6.25;2.00;;;;;19.60;100988.00;;;;10275729;28;20223;-79
2022/11/01 12:35:36;;;;;;;6.30;1.20;;;;;19.70;100985.00;;;;10306865;28;20283;-79
2022/11/01 12:40:42;;;;;;;5.90;2.50;;;;;19.90;100985.00;;;;10307291;28;20644;-78
2022/11/01 12:45:55;;;;;;;4.13;1.95;;;;;19.80;100993.00;;;;10310761;28;20229;-79
2022/11/01 12:51:10;;;;;;;4.80;1.38;;;;;19.60;100996.00;;;;10283211;28;20185;-77
2022/11/01 12:56:12;;;;;;;6.32;1.45;;;;;19.60;100977.00;;;;10296226;28;20243;-78
2022/11/01 13:01:46;;;;;;;7.30;2.05;;;;;19.50;100981.00;;;;10307325;28;20256;-78
2022/11/01 13:06:59;;;;;;;8.65;1.60;;;;;19.50;100987.00;;;;10321134;28;20267;-78
2022/11/01 13:12:26;;;;;;;7.65;1.70;;;;;19.50;100979.00;;;;10338090;28;20251;-78
2022/11/01 13:17:49;;;;;;;6.13;1.55;;;;;19.10;100974.00;;;;10362735;28;20214;-78
2022/11/01 13:23:15;;;;;;;4.55;1.30;;;;;18.90;100974.00;;;;10362674;28;20733;-79
2022/11/01 13:28:29;;;;;;;8.38;1.73;;;;;19.00;100980.00;;;;10362232;28;20192;-78
2022/11/01 13:33:46;;;;;;;6.85;2.30;;;;;18.70;100969.00;;;;10358929;28;20655;-79
2022/11/01 13:39:09;;;;;;;8.45;1.95;;;;;18.60;100963.00;;;;10303178;28;20304;-79
2022/11/01 13:44:19;;;;;;;5.57;1.42;;;;;18.60;100956.00;;;;10289841;28;20188;-79
2022/11/01 13:49:43;;;;;;;5.28;1.45;;;;;18.70;100966.00;;;;10295497;28;20204;-78
2022/11/01 13:55:15;;;;;;;7.47;1.65;;;;;19.10;100968.00;;;;10313904;28;20242;-78
2022/11/01 14:00:36;;;;;;;8.10;1.80;;;;;19.80;100972.00;;;;10338738;28;20196;-78
2022/11/01 14:05:38;;;;;;;6.75;1.77;;;;;20.80;100981.00;;;;10323180;28;20251;-78
2022/11/01 14:10:45;;;;;;;5.13;1.52;;;;;20.00;100960.00;;;;10325603;28;20203;-77
2022/11/01 14:15:53;;;;;;;8.45;1.80;;;;;19.50;100971.00;;;;10357681;28;20430;-77
2022/11/01 14:20:56;;;;;;;7.28;1.50;;;;;19.50;100974.00;;;;10344915;28;20227;-77
2022/11/01 14:26:17;;;;;;;7.25;1.67;;;;;19.40;100948.00;;;;10320575;28;20231;-77
2022/11/01 14:31:22;;;;;;;7.22;1.58;;;;;19.50;100960.00;;;;10304613;28;20262;-77
2022/11/01 14:36:28;;;;;;;11.55;1.92;;;;;20.20;100970.00;;;;10311952;28;20294;-78
2022/11/01 14:41:35;;;;;;;9.23;1.60;;;;;18.80;100979.00;;;;10342444;28;20196;-78
2022/11/01 14:46:42;;;;;;;8.38;1.80;;;;;18.30;100989.00;;;;10303429;28;20196;-79
2022/11/01 14:52:03;;;;;;;6.78;1.83;;;;;18.30;100958.00;;;;10326617;28;20228;-78
2022/11/01 14:57:19;;;;;;;8.57;1.52;;;;;17.60;100980.00;;;;10311662;28;20263;-78
2022/11/01 15:02:24;;;;;;;8.13;1.85;;;;;16.80;100964.00;;;;10280633;28;20196;-78
2022/11/01 15:07:39;;;;;;;7.55;1.92;;;;;16.70;100959.00;;;;10311826;28;20692;-78
2022/11/01 15:13:03;;;;;;;9.50;1.38;;;;;16.50;100963.00;;;;10295970;28;20188;-79
2022/11/01 15:18:13;;;;;;;8.07;1.67;;;;;16.30;100943.00;;;;10328263;28;20212;-78
2022/11/01 15:23:25;;;;;;;7.85;1.90;;;;;15.90;100953.00;;;;10281046;28;20206;-78
2022/11/01 15:28:36;;;;;;;10.10;2.00;;;;;15.70;100952.00;;;;10287941;28;20181;-78
2022/11/01 15:33:38;;;;;;;7.20;1.75;;;;;15.60;100952.00;;;;10275208;28;20214;-78
2022/11/01 15:39:00;;;;;;;9.73;1.90;;;;;15.50;100954.00;;;;10343687;28;20215;-78
2022/11/01 15:44:07;;;;;;;9.77;2.42;;;;;15.40;100956.00;;;;10341746;28;20197;-77
2022/11/01 15:49:32;;;;;;;11.07;1.70;;;;;15.30;100962.00;;;;10321313;28;20199;-78
2022/11/01 15:55:02;;;;;;;6.85;1.50;;;;;15.20;100973.00;;;;10327703;28;20211;-77
2022/11/01 16:00:16;;;;;;;9.85;1.50;;;;;15.20;100975.00;;;;10347028;28;20188;-78
2022/11/01 16:05:23;;;;;;;7.55;1.52;;;;;15.20;100982.00;;;;10316131;28;20216;-78
2022/11/01 16:10:28;;;;;;;7.60;1.55;;;;;15.30;100980.00;;;;10306707;28;20204;-77
2022/11/01 16:15:32;;;;;;;6.95;1.40;;;;;15.30;100979.00;;;;10331606;28;20218;-78
2022/11/01 16:20:37;;;;;;;5.15;1.60;;;;;15.30;100975.00;;;;10297504;28;20291;-78
2022/11/01 16:25:39;;;;;;;6.30;1.50;;;;;15.20;100971.00;;;;10332216;28;20223;-78
2022/11/01 16:30:46;;;;;;;9.43;1.30;;;;;15.20;100987.00;;;;10301384;28;20329;-77
2022/11/01 16:36:00;;;;;;;3.67;1.30;;;;;15.10;100978.00;;;;10320454;28;20208;-77
2022/11/01 16:41:14;;;;;;;4.93;1.40;;;;;15.10;100986.00;;;;10316891;28;20204;-77
2022/11/01 16:46:18;;;;;;;5.15;1.65;;;;;15.10;100984.00;;;;10311745;28;20185;-78
2022/11/01 16:51:23;;;;;;;4.38;1.23;;;;;15.10;100986.00;;;;10315690;28;20188;-78
2022/11/01 16:56:33;;;;;;;9.65;2.20;;;;;15.00;100980.00;;;;10325346;28;20216;-78
2022/11/01 17:01:38;;;;;;;7.07;1.42;;;;;14.90;100986.00;;;;10312796;28;20729;-77
2022/11/01 17:06:40;;;;;;;8.25;1.63;;;;;14.80;100991.00;;;;10302963;28;20220;-78
2022/11/01 17:11:44;;;;;;;10.03;1.90;;;;;14.90;100973.00;;;;10325460;28;20212;-78
2022/11/01 17:16:52;;;;;;;4.83;1.50;;;;;14.80;100971.00;;;;10313123;28;20640;-79
2022/11/01 17:21:54;;;;;;;10.07;1.92;;;;;14.60;100969.00;;;;10295425;28;20299;-78
2022/11/01 17:26:59;;;;;;;9.93;2.08;;;;;14.50;100965.00;;;;10281153;28;20231;-79
2022/11/01 17:32:02;;;;;;;11.77;2.10;;;;;14.50;100970.00;;;;10307921;28;20200;-78
2022/11/01 17:37:05;;;;;;;8.50;1.37;;;;;14.40;100968.00;;;;10312786;28;20251;-78
2022/11/01 17:42:08;;;;;;;9.47;1.90;;;;;14.40;100963.00;;;;10314828;28;20283;-77
2022/11/01 17:47:13;;;;;;;7.10;1.48;;;;;14.30;100971.00;;;;10301620;28;20197;-77
2022/11/01 17:52:16;;;;;;;8.20;1.93;;;;;14.30;100970.00;;;;10296460;28;20667;-77
2022/11/01 17:57:18;;;;;;;7.05;1.65;;;;;14.30;100962.00;;;;10287889;28;20226;-78
2022/11/01 18:02:20;;;;;;;6.93;1.63;;;;;14.40;100971.00;;;;10319809;28;20555;-77
2022/11/01 18:07:22;;;;;;;6.20;1.83;;;;;14.50;100965.00;;;;10302085;28;20212;-78
2022/11/01 18:12:36;;;;;;;7.10;1.73;;;;;14.70;100974.00;;;;10312858;28;20187;-78
2022/11/01 18:17:53;;;;;;;11.70;1.88;;;;;14.70;100977.00;;;;10281373;28;20569;-77
2022/11/01 18:23:00;;;;;;;8.53;1.70;;;;;14.80;100969.00;;;;10329327;28;20231;-78
2022/11/01 18:28:31;;;;;;;10.00;2.53;;;;;14.80;100961.00;;;;10312007;28;20215;-78
2022/11/01 18:33:54;;;;;;;7.37;1.37;;;;;14.90;100968.00;;;;10302434;28;20563;-78
2022/11/01 18:39:05;;;;;;;8.00;1.80;;;;;14.80;100982.00;;;;10313317;28;20255;-77
2022/11/01 18:44:11;;;;;;;7.18;1.25;;;;;14.80;100987.00;;;;10340681;28;20268;-78
2022/11/01 18:49:13;;;;;;;9.50;2.00;;;;;14.80;100985.00;;;;10311903;28;20191;-78
2022/11/01 18:54:24;;;;;;;7.03;1.67;;;;;14.80;100972.00;;;;10295440;28;20203;-79
2022/11/01 18:59:32;;;;;;;9.57;1.50;;;;;14.80;100979.00;;;;10297094;28;20220;-78
2022/11/01 19:04:36;;;;;;;8.53;1.50;;;;;14.80;100971.00;;;;10299348;28;20232;-78
2022/11/01 19:10:01;;;;;;;7.07;2.38;;;;;14.80;100979.00;;;;10310979;28;20192;-77
2022/11/01 19:15:17;;;;;;;5.68;1.10;;;;;14.80;100967.00;;;;10295558;28;20196;-79
2022/11/01 19:20:26;;;;;;;7.75;3.10;;;;;14.80;100975.00;;;;10370904;28;20192;-79
2022/11/01 19:25:34;;;;;;;8.00;1.80;;;;;14.70;100948.00;;;;10310818;28;20187;-79
2022/11/01 19:30:36;;;;;;;6.90;1.60;;;;;14.80;100962.00;;;;10296370;28;20208;-78
2022/11/01 19:35:40;;;;;;;9.45;1.85;;;;;14.80;100952.00;;;;10310604;28;20216;-77
2022/11/01 19:40:42;;;;;;;5.97;1.58;;;;;14.70;100941.00;;;;10304553;28;20193;-79
2022/11/01 19:45:49;;;;;;;8.97;2.27;;;;;14.80;100926.00;;;;10288156;28;20726;-79
2022/11/01 19:50:51;;;;;;;7.87;1.60;;;;;14.70;100928.00;;;;10326428;28;20188;-78
2022/11/01 19:56:09;;;;;;;6.77;1.90;;;;;14.70;100928.00;;;;10269353;28;20312;-78
2022/11/01 20:01:42;;;;;;;11.20;1.90;;;;;14.60;100919.00;;;;10249720;28;20247;-77
2022/11/01 20:07:14;;;;;;;6.03;2.13;;;;;14.50;100933.00;;;;10321267;28;20323;-78
2022/11/01 20:12:17;;;;;;;10.17;1.90;;;;;14.50;100924.00;;;;10315821;28;20200;-78
2022/11/01 20:17:23;;;;;;;6.40;1.40;;;;;14.70;100920.00;;;;10300804;28;20337;-79
2022/11/01 20:22:26;;;;;;;9.85;1.75;;;;;14.80;100934.00;;;;10300675;28;20207;-79
2022/11/01 20:27:28;;;;;;;7.50;1.40;;;;;14.90;100937.00;;;;10255846;28;20189;-78
2022/11/01 20:32:30;;;;;;;4.15;1.35;;;;;15.00;100967.00;;;;10322987;28;20200;-78
2022/11/01 20:37:32;;;;;;;8.20;1.58;;;;;15.00;100977.00;;;;10302958;28;20212;-78
2022/11/01 20:42:34;;;;;;;13.53;1.83;;;;;15.10;100976.00;;;;10292995;28;20195;-79
2022/11/01 20:47:36;;;;;;;8.13;1.80;;;;;15.00;100978.00;;;;10295273;28;20267;-79
2022/11/01 20:52:38;;;;;;;9.80;1.83;;;;;15.00;100982.00;;;;10311404;28;20271;-78
2022/11/01 20:57:41;;;;;;;9.57;2.00;;;;;15.00;100984.00;;;;10326316;28;20216;-79
2022/11/01 21:02:44;;;;;;;5.80;1.43;;;;;14.90;100984.00;;;;10301359;28;20223;-79
2022/11/01 21:07:47;;;;;;;6.90;2.03;;;;;14.80;100987.00;;;;10310212;28;20632;-79
2022/11/01 21:12:49;;;;;;;7.70;1.98;;;;;14.70;100985.00;;;;10299643;28;20196;-79
2022/11/01 21:17:56;;;;;;;7.97;2.40;;;;;14.40;100981.00;;;;10339217;28;20211;-79
2022/11/01 21:23:01;;;;;;;6.97;2.00;;;;;14.20;100989.00;;;;10326008;28;20196;-78
2022/11/01 21:28:31;;;;;;;8.03;1.80;;;;;14.10;100978.00;;;;10323913;28;20853;-79
2022/11/01 21:33:35;;;;;;;9.37;1.90;;;;;14.00;100976.00;;;;10306747;28;20199;-79
2022/11/01 21:38:40;;;;;;;9.50;2.13;;;;;14.00;100974.00;;;;10290337;28;20200;-78
2022/11/01 21:43:42;;;;;;;6.03;1.40;;;;;13.90;100948.00;;;;10304484;28;20188;-77
2022/11/01 21:48:45;;;;;;;8.57;2.10;;;;;13.70;100945.00;;;;10306530;28;20274;-78
2022/11/01 21:53:47;;;;;;;8.27;1.43;;;;;13.60;100951.00;;;;10290814;28;20244;-79
2022/11/01 21:58:48;;;;;;;7.10;1.67;;;;;13.60;100945.00;;;;10315075;28;20730;-78
2022/11/01 22:03:50;;;;;;;9.77;1.60;;;;;13.60;100938.00;;;;10288594;28;20203;-78
2022/11/01 22:08:52;;;;;;;5.87;1.50;;;;;13.60;100932.00;;;;10321998;28;20220;-79
2022/11/01 22:13:54;;;;;;;9.93;1.87;;;;;13.70;100920.00;;;;10320797;28;20282;-79
2022/11/01 22:18:56;;;;;;;4.37;1.67;;;;;13.80;100931.00;;;;10374561;28;20207;-79
2022/11/01 22:23:58;;;;;;;6.60;1.67;;;;;14.00;100917.00;;;;10361418;28;20207;-78
2022/11/01 22:29:00;;;;;;;6.27;1.90;;;;;14.10;100921.00;;;;10377567;28;20651;-78
2022/11/01 22:34:02;;;;;;;5.73;1.60;;;;;14.10;100909.00;;;;10353834;28;20195;-78
2022/11/01 22:39:22;;;;;;;7.17;1.67;;;;;14.10;100929.00;;;;10320405;28;20212;-78
2022/11/01 22:44:26;;;;;;;15.33;2.20;;;;;14.20;100916.00;;;;10304477;28;20746;-79
2022/11/01 22:49:34;;;;;;;4.90;1.63;;;;;14.10;100924.00;;;;10304261;28;20181;-79
2022/11/01 22:54:42;;;;;;;6.03;1.63;;;;;14.10;100919.00;;;;10307067;28;20214;-78
2022/11/01 22:59:46;;;;;;;7.93;1.20;;;;;14.20;100925.00;;;;10312698;28;20239;-79
2022/11/01 23:04:48;;;;;;;6.70;1.80;;;;;14.10;100919.00;;;;10310028;28;20196;-79
2022/11/01 23:09:52;;;;;;;5.83;1.40;;;;;14.10;100936.00;;;;10293502;28;20208;-78
2022/11/01 23:14:54;;;;;;;5.83;1.37;;;;;14.00;100942.00;;;;10301744;28;20274;-78
2022/11/01 23:19:59;;;;;;;9.27;1.90;;;;;13.90;100940.00;;;;10262850;28;20216;-77
2022/11/01 23:25:02;;;;;;;4.13;1.47;;;;;13.90;100944.00;;;;10300781;28;20267;-78
2022/11/01 23:30:04;;;;;;;8.83;1.70;;;;;13.80;100947.00;;;;10254728;28;20201;-78
2022/11/01 23:35:17;;;;;;;6.37;2.10;;;;;13.80;100942.00;;;;10283277;28;20562;-77
2022/11/01 23:40:21;;;;;;;7.53;1.63;;;;;13.80;100971.00;;;;10309806;28;20215;-77
2022/11/01 23:45:34;;;;;;;9.20;1.47;;;;;13.70;100964.00;;;;10325749;28;20211;-77
2022/11/01 23:50:36;;;;;;;6.57;1.83;;;;;13.60;100977.00;;;;10294444;28;20191;-78
2022/11/01 23:55:51;;;;;;;5.13;1.37;;;;;13.60;100973.00;;;;10308829;28;20289;-77
